sensor_id;sensor_type;location;lat;lon;timestamp;P1;durP1;ratioP1;P2;durP2;ratioP2
27013;SDS011;14556;52.222;4.510;2022-10-16T00:02:17;1.83;;;0.60;;
27013;SDS011;14556;52.222;4.510;2022-10-16T00:04:43;1.70;;;0.67;;
27013;SDS011;14556;52.222;4.510;2022-10-16T00:07:10;3.50;;;0.70;;
27013;SDS011;14556;52.222;4.510;2022-10-16T00:09:36;1.13;;;0.73;;
27013;SDS011;14556;52.222;4.510;2022-10-16T00:12:02;4.53;;;0.90;;
27013;SDS011;14556;52.222;4.510;2022-10-16T00:14:30;2.40;;;0.73;;
27013;SDS011;14556;52.222;4.510;2022-10-16T00:16:57;2.50;;;0.87;;
27013;SDS011;14556;52.222;4.510;2022-10-16T00:19:23;3.57;;;0.90;;
27013;SDS011;14556;52.222;4.510;2022-10-16T00:21:50;3.63;;;1.23;;
27013;SDS011;14556;52.222;4.510;2022-10-16T00:24:16;0.97;;;0.60;;
27013;SDS011;14556;52.222;4.510;2022-10-16T00:26:42;1.30;;;0.80;;
27013;SDS011;14556;52.222;4.510;2022-10-16T00:29:09;1.10;;;0.60;;
27013;SDS011;14556;52.222;4.510;2022-10-16T00:31:35;2.40;;;0.80;;
27013;SDS011;14556;52.222;4.510;2022-10-16T00:34:02;2.80;;;0.90;;
27013;SDS011;14556;52.222;4.510;2022-10-16T00:36:29;1.40;;;0.63;;
27013;SDS011;14556;52.222;4.510;2022-10-16T00:38:56;1.20;;;0.77;;
27013;SDS011;14556;52.222;4.510;2022-10-16T00:41:26;1.90;;;0.60;;
27013;SDS011;14556;52.222;4.510;2022-10-16T00:43:57;0.73;;;0.50;;
27013;SDS011;14556;52.222;4.510;2022-10-16T00:46:26;4.33;;;1.00;;
27013;SDS011;14556;52.222;4.510;2022-10-16T00:49:02;2.97;;;0.70;;
27013;SDS011;14556;52.222;4.510;2022-10-16T00:51:50;1.33;;;0.87;;
27013;SDS011;14556;52.222;4.510;2022-10-16T00:54:20;2.20;;;0.70;;
27013;SDS011;14556;52.222;4.510;2022-10-16T00:56:49;2.93;;;1.00;;
27013;SDS011;14556;52.222;4.510;2022-10-16T01:01:51;1.00;;;0.70;;
27013;SDS011;14556;52.222;4.510;2022-10-16T01:04:19;1.43;;;0.60;;
27013;SDS011;14556;52.222;4.510;2022-10-16T01:12:10;2.10;;;0.50;;
27013;SDS011;14556;52.222;4.510;2022-10-16T01:14:58;4.20;;;0.53;;
27013;SDS011;14556;52.222;4.510;2022-10-16T01:20:28;0.97;;;0.50;;
27013;SDS011;14556;52.222;4.510;2022-10-16T01:28:28;2.33;;;0.57;;
27013;SDS011;14556;52.222;4.510;2022-10-16T01:31:00;2.50;;;0.70;;
27013;SDS011;14556;52.222;4.510;2022-10-16T01:33:35;1.57;;;0.67;;
27013;SDS011;14556;52.222;4.510;2022-10-16T01:36:17;2.57;;;0.70;;
27013;SDS011;14556;52.222;4.510;2022-10-16T01:38:48;2.37;;;0.50;;
27013;SDS011;14556;52.222;4.510;2022-10-16T01:41:22;1.80;;;0.73;;
27013;SDS011;14556;52.222;4.510;2022-10-16T01:46:28;2.00;;;0.70;;
27013;SDS011;14556;52.222;4.510;2022-10-16T01:48:57;1.40;;;0.60;;
27013;SDS011;14556;52.222;4.510;2022-10-16T01:51:26;1.30;;;0.73;;
27013;SDS011;14556;52.222;4.510;2022-10-16T01:53:55;1.13;;;0.70;;
27013;SDS011;14556;52.222;4.510;2022-10-16T01:56:25;1.40;;;0.70;;
27013;SDS011;14556;52.222;4.510;2022-10-16T01:58:53;1.40;;;0.40;;
27013;SDS011;14556;52.222;4.510;2022-10-16T02:01:24;1.27;;;0.70;;
27013;SDS011;14556;52.222;4.510;2022-10-16T02:03:54;1.13;;;0.70;;
27013;SDS011;14556;52.222;4.510;2022-10-16T02:06:25;1.03;;;0.80;;
27013;SDS011;14556;52.222;4.510;2022-10-16T02:08:52;2.37;;;0.80;;
27013;SDS011;14556;52.222;4.510;2022-10-16T02:11:19;3.27;;;0.80;;
27013;SDS011;14556;52.222;4.510;2022-10-16T02:13:51;2.70;;;0.70;;
27013;SDS011;14556;52.222;4.510;2022-10-16T02:16:26;1.37;;;0.70;;
27013;SDS011;14556;52.222;4.510;2022-10-16T02:18:59;2.87;;;1.10;;
27013;SDS011;14556;52.222;4.510;2022-10-16T02:21:28;0.60;;;0.50;;
27013;SDS011;14556;52.222;4.510;2022-10-16T02:26:36;1.37;;;0.70;;
27013;SDS011;14556;52.222;4.510;2022-10-16T02:29:10;3.40;;;0.73;;
27013;SDS011;14556;52.222;4.510;2022-10-16T02:31:41;2.23;;;0.80;;
27013;SDS011;14556;52.222;4.510;2022-10-16T02:34:13;1.13;;;0.70;;
27013;SDS011;14556;52.222;4.510;2022-10-16T02:36:42;2.30;;;0.90;;
27013;SDS011;14556;52.222;4.510;2022-10-16T02:39:10;2.03;;;0.77;;
27013;SDS011;14556;52.222;4.510;2022-10-16T02:41:37;3.27;;;1.10;;
27013;SDS011;14556;52.222;4.510;2022-10-16T02:44:04;1.57;;;0.87;;
27013;SDS011;14556;52.222;4.510;2022-10-16T02:46:30;1.20;;;0.97;;
27013;SDS011;14556;52.222;4.510;2022-10-16T02:48:57;3.03;;;0.93;;
27013;SDS011;14556;52.222;4.510;2022-10-16T02:51:23;5.80;;;1.20;;
27013;SDS011;14556;52.222;4.510;2022-10-16T02:53:51;1.60;;;0.90;;
27013;SDS011;14556;52.222;4.510;2022-10-16T02:56:17;1.00;;;0.80;;
27013;SDS011;14556;52.222;4.510;2022-10-16T02:58:44;2.43;;;1.00;;
27013;SDS011;14556;52.222;4.510;2022-10-16T03:01:11;1.77;;;0.83;;
27013;SDS011;14556;52.222;4.510;2022-10-16T03:03:39;2.07;;;1.20;;
27013;SDS011;14556;52.222;4.510;2022-10-16T03:06:06;1.67;;;1.17;;
27013;SDS011;14556;52.222;4.510;2022-10-16T03:08:32;1.27;;;0.80;;
27013;SDS011;14556;52.222;4.510;2022-10-16T03:10:59;2.00;;;1.03;;
27013;SDS011;14556;52.222;4.510;2022-10-16T03:13:25;2.97;;;1.10;;
27013;SDS011;14556;52.222;4.510;2022-10-16T03:15:51;1.57;;;1.00;;
27013;SDS011;14556;52.222;4.510;2022-10-16T03:18:19;2.77;;;1.13;;
27013;SDS011;14556;52.222;4.510;2022-10-16T03:20:45;2.20;;;1.67;;
27013;SDS011;14556;52.222;4.510;2022-10-16T03:23:12;3.03;;;1.20;;
27013;SDS011;14556;52.222;4.510;2022-10-16T03:25:39;2.97;;;1.13;;
27013;SDS011;14556;52.222;4.510;2022-10-16T03:28:06;2.13;;;1.10;;
27013;SDS011;14556;52.222;4.510;2022-10-16T03:30:33;2.80;;;1.20;;
27013;SDS011;14556;52.222;4.510;2022-10-16T03:32:59;2.83;;;1.27;;
27013;SDS011;14556;52.222;4.510;2022-10-16T03:35:26;2.80;;;1.13;;
27013;SDS011;14556;52.222;4.510;2022-10-16T03:37:52;1.63;;;1.00;;
27013;SDS011;14556;52.222;4.510;2022-10-16T03:40:19;2.93;;;1.20;;
27013;SDS011;14556;52.222;4.510;2022-10-16T03:42:46;1.47;;;0.93;;
27013;SDS011;14556;52.222;4.510;2022-10-16T03:45:13;3.50;;;1.10;;
27013;SDS011;14556;52.222;4.510;2022-10-16T03:47:39;2.57;;;1.10;;
27013;SDS011;14556;52.222;4.510;2022-10-16T03:50:06;1.23;;;0.80;;
27013;SDS011;14556;52.222;4.510;2022-10-16T03:52:33;1.37;;;1.10;;
27013;SDS011;14556;52.222;4.510;2022-10-16T03:54:59;3.33;;;0.83;;
27013;SDS011;14556;52.222;4.510;2022-10-16T03:57:25;4.07;;;0.97;;
27013;SDS011;14556;52.222;4.510;2022-10-16T03:59:52;1.23;;;0.70;;
27013;SDS011;14556;52.222;4.510;2022-10-16T04:02:19;0.97;;;0.83;;
27013;SDS011;14556;52.222;4.510;2022-10-16T04:04:45;1.67;;;0.87;;
27013;SDS011;14556;52.222;4.510;2022-10-16T04:07:12;3.87;;;1.00;;
27013;SDS011;14556;52.222;4.510;2022-10-16T04:09:38;3.13;;;0.87;;
27013;SDS011;14556;52.222;4.510;2022-10-16T04:12:05;3.27;;;0.73;;
27013;SDS011;14556;52.222;4.510;2022-10-16T04:14:31;2.43;;;0.87;;
27013;SDS011;14556;52.222;4.510;2022-10-16T04:16:58;2.77;;;0.80;;
27013;SDS011;14556;52.222;4.510;2022-10-16T04:19:24;1.40;;;0.60;;
27013;SDS011;14556;52.222;4.510;2022-10-16T04:21:51;3.00;;;0.77;;
27013;SDS011;14556;52.222;4.510;2022-10-16T04:24:17;3.43;;;0.87;;
27013;SDS011;14556;52.222;4.510;2022-10-16T04:26:44;2.00;;;0.67;;
27013;SDS011;14556;52.222;4.510;2022-10-16T04:29:10;4.17;;;0.83;;
27013;SDS011;14556;52.222;4.510;2022-10-16T04:31:36;3.27;;;0.63;;
27013;SDS011;14556;52.222;4.510;2022-10-16T04:34:03;7.57;;;1.00;;
27013;SDS011;14556;52.222;4.510;2022-10-16T04:36:29;3.73;;;0.80;;
27013;SDS011;14556;52.222;4.510;2022-10-16T04:38:56;5.57;;;1.03;;
27013;SDS011;14556;52.222;4.510;2022-10-16T04:41:22;2.27;;;0.70;;
27013;SDS011;14556;52.222;4.510;2022-10-16T04:43:49;2.73;;;0.87;;
27013;SDS011;14556;52.222;4.510;2022-10-16T04:46:15;1.77;;;0.80;;
27013;SDS011;14556;52.222;4.510;2022-10-16T04:48:41;4.80;;;1.23;;
27013;SDS011;14556;52.222;4.510;2022-10-16T04:51:08;4.03;;;0.83;;
27013;SDS011;14556;52.222;4.510;2022-10-16T04:53:34;3.93;;;1.10;;
27013;SDS011;14556;52.222;4.510;2022-10-16T04:56:01;2.13;;;0.70;;
27013;SDS011;14556;52.222;4.510;2022-10-16T04:58:27;2.87;;;0.87;;
27013;SDS011;14556;52.222;4.510;2022-10-16T05:00:54;2.10;;;0.83;;
27013;SDS011;14556;52.222;4.510;2022-10-16T05:03:20;5.37;;;0.93;;
27013;SDS011;14556;52.222;4.510;2022-10-16T05:05:47;1.70;;;0.87;;
27013;SDS011;14556;52.222;4.510;2022-10-16T05:08:14;4.40;;;1.00;;
27013;SDS011;14556;52.222;4.510;2022-10-16T05:10:43;2.70;;;0.83;;
27013;SDS011;14556;52.222;4.510;2022-10-16T05:13:10;3.53;;;0.80;;
27013;SDS011;14556;52.222;4.510;2022-10-16T05:15:37;4.43;;;0.80;;
27013;SDS011;14556;52.222;4.510;2022-10-16T05:18:03;3.90;;;1.00;;
27013;SDS011;14556;52.222;4.510;2022-10-16T05:20:30;1.77;;;0.93;;
27013;SDS011;14556;52.222;4.510;2022-10-16T05:22:56;1.50;;;0.80;;
27013;SDS011;14556;52.222;4.510;2022-10-16T05:25:23;1.40;;;0.87;;
27013;SDS011;14556;52.222;4.510;2022-10-16T05:27:50;1.17;;;0.90;;
27013;SDS011;14556;52.222;4.510;2022-10-16T05:30:17;2.30;;;1.20;;
27013;SDS011;14556;52.222;4.510;2022-10-16T05:32:47;2.67;;;1.00;;
27013;SDS011;14556;52.222;4.510;2022-10-16T05:35:17;3.83;;;1.10;;
27013;SDS011;14556;52.222;4.510;2022-10-16T05:37:44;2.13;;;0.90;;
27013;SDS011;14556;52.222;4.510;2022-10-16T05:40:11;3.70;;;1.00;;
27013;SDS011;14556;52.222;4.510;2022-10-16T05:42:39;4.50;;;1.23;;
27013;SDS011;14556;52.222;4.510;2022-10-16T05:45:06;3.60;;;1.00;;
27013;SDS011;14556;52.222;4.510;2022-10-16T05:47:34;4.23;;;0.97;;
27013;SDS011;14556;52.222;4.510;2022-10-16T05:50:00;0.80;;;0.60;;
27013;SDS011;14556;52.222;4.510;2022-10-16T05:52:27;3.37;;;0.90;;
27013;SDS011;14556;52.222;4.510;2022-10-16T05:54:53;2.27;;;0.70;;
27013;SDS011;14556;52.222;4.510;2022-10-16T05:57:20;1.63;;;0.90;;
27013;SDS011;14556;52.222;4.510;2022-10-16T05:59:46;3.10;;;0.80;;
27013;SDS011;14556;52.222;4.510;2022-10-16T06:02:13;3.47;;;1.00;;
27013;SDS011;14556;52.222;4.510;2022-10-16T06:04:40;2.87;;;0.80;;
27013;SDS011;14556;52.222;4.510;2022-10-16T06:07:07;2.17;;;1.10;;
27013;SDS011;14556;52.222;4.510;2022-10-16T06:09:34;2.67;;;0.80;;
27013;SDS011;14556;52.222;4.510;2022-10-16T06:12:00;2.10;;;1.07;;
27013;SDS011;14556;52.222;4.510;2022-10-16T06:14:27;5.50;;;1.33;;
27013;SDS011;14556;52.222;4.510;2022-10-16T06:16:53;3.17;;;1.40;;
27013;SDS011;14556;52.222;4.510;2022-10-16T06:19:20;3.63;;;1.50;;
27013;SDS011;14556;52.222;4.510;2022-10-16T06:21:46;3.70;;;2.10;;
27013;SDS011;14556;52.222;4.510;2022-10-16T06:24:13;3.17;;;1.40;;
27013;SDS011;14556;52.222;4.510;2022-10-16T06:26:39;5.23;;;2.07;;
27013;SDS011;14556;52.222;4.510;2022-10-16T06:29:05;5.90;;;1.37;;
27013;SDS011;14556;52.222;4.510;2022-10-16T06:31:32;4.23;;;1.30;;
27013;SDS011;14556;52.222;4.510;2022-10-16T06:33:59;4.83;;;1.37;;
27013;SDS011;14556;52.222;4.510;2022-10-16T06:36:27;3.13;;;1.20;;
27013;SDS011;14556;52.222;4.510;2022-10-16T06:38:54;2.43;;;1.20;;
27013;SDS011;14556;52.222;4.510;2022-10-16T06:41:21;5.57;;;1.67;;
27013;SDS011;14556;52.222;4.510;2022-10-16T06:43:48;3.43;;;1.53;;
27013;SDS011;14556;52.222;4.510;2022-10-16T06:46:16;2.43;;;1.13;;
27013;SDS011;14556;52.222;4.510;2022-10-16T06:48:46;2.93;;;1.03;;
27013;SDS011;14556;52.222;4.510;2022-10-16T06:51:14;2.17;;;0.90;;
27013;SDS011;14556;52.222;4.510;2022-10-16T06:53:45;5.07;;;1.30;;
27013;SDS011;14556;52.222;4.510;2022-10-16T06:56:28;7.20;;;1.37;;
27013;SDS011;14556;52.222;4.510;2022-10-16T06:58:58;4.60;;;1.07;;
27013;SDS011;14556;52.222;4.510;2022-10-16T07:01:25;2.60;;;1.53;;
27013;SDS011;14556;52.222;4.510;2022-10-16T07:03:52;2.87;;;0.87;;
27013;SDS011;14556;52.222;4.510;2022-10-16T07:06:19;9.63;;;1.30;;
27013;SDS011;14556;52.222;4.510;2022-10-16T07:08:47;2.13;;;0.80;;
27013;SDS011;14556;52.222;4.510;2022-10-16T07:11:16;2.17;;;0.90;;
27013;SDS011;14556;52.222;4.510;2022-10-16T07:13:44;2.33;;;1.50;;
27013;SDS011;14556;52.222;4.510;2022-10-16T07:16:20;2.00;;;0.87;;
27013;SDS011;14556;52.222;4.510;2022-10-16T07:18:48;3.33;;;1.10;;
27013;SDS011;14556;52.222;4.510;2022-10-16T07:21:16;7.23;;;1.20;;
27013;SDS011;14556;52.222;4.510;2022-10-16T07:23:45;8.40;;;1.30;;
27013;SDS011;14556;52.222;4.510;2022-10-16T07:26:16;3.47;;;0.83;;
27013;SDS011;14556;52.222;4.510;2022-10-16T07:28:42;7.27;;;0.97;;
27013;SDS011;14556;52.222;4.510;2022-10-16T07:31:10;11.00;;;1.30;;
27013;SDS011;14556;52.222;4.510;2022-10-16T07:33:40;4.53;;;0.90;;
27013;SDS011;14556;52.222;4.510;2022-10-16T07:36:11;6.57;;;1.27;;
27013;SDS011;14556;52.222;4.510;2022-10-16T07:38:41;3.93;;;0.93;;
27013;SDS011;14556;52.222;4.510;2022-10-16T07:41:09;3.63;;;1.03;;
27013;SDS011;14556;52.222;4.510;2022-10-16T07:43:50;4.00;;;0.90;;
27013;SDS011;14556;52.222;4.510;2022-10-16T07:46:19;5.90;;;1.17;;
27013;SDS011;14556;52.222;4.510;2022-10-16T07:48:47;1.93;;;0.97;;
27013;SDS011;14556;52.222;4.510;2022-10-16T07:51:15;5.73;;;1.10;;
27013;SDS011;14556;52.222;4.510;2022-10-16T07:53:43;5.50;;;1.10;;
27013;SDS011;14556;52.222;4.510;2022-10-16T07:56:09;1.90;;;0.90;;
27013;SDS011;14556;52.222;4.510;2022-10-16T07:58:36;5.63;;;1.63;;
27013;SDS011;14556;52.222;4.510;2022-10-16T08:01:09;5.03;;;1.40;;
27013;SDS011;14556;52.222;4.510;2022-10-16T08:03:37;4.87;;;1.40;;
27013;SDS011;14556;52.222;4.510;2022-10-16T08:06:04;4.10;;;1.40;;
27013;SDS011;14556;52.222;4.510;2022-10-16T08:08:31;5.43;;;1.93;;
27013;SDS011;14556;52.222;4.510;2022-10-16T08:10:57;5.17;;;1.40;;
27013;SDS011;14556;52.222;4.510;2022-10-16T08:13:24;5.83;;;1.30;;
27013;SDS011;14556;52.222;4.510;2022-10-16T08:15:53;5.10;;;1.40;;
27013;SDS011;14556;52.222;4.510;2022-10-16T08:18:20;4.80;;;1.30;;
27013;SDS011;14556;52.222;4.510;2022-10-16T08:20:46;5.17;;;1.40;;
27013;SDS011;14556;52.222;4.510;2022-10-16T08:23:13;5.43;;;1.53;;
27013;SDS011;14556;52.222;4.510;2022-10-16T08:25:40;7.57;;;1.30;;
27013;SDS011;14556;52.222;4.510;2022-10-16T08:28:08;4.70;;;1.60;;
27013;SDS011;14556;52.222;4.510;2022-10-16T08:30:36;6.60;;;1.57;;
27013;SDS011;14556;52.222;4.510;2022-10-16T08:33:03;8.03;;;1.83;;
27013;SDS011;14556;52.222;4.510;2022-10-16T08:35:29;10.07;;;1.70;;
27013;SDS011;14556;52.222;4.510;2022-10-16T08:37:56;6.13;;;1.60;;
27013;SDS011;14556;52.222;4.510;2022-10-16T08:40:26;7.90;;;1.70;;
27013;SDS011;14556;52.222;4.510;2022-10-16T08:45:52;4.97;;;1.50;;
27013;SDS011;14556;52.222;4.510;2022-10-16T08:48:35;9.53;;;2.00;;
27013;SDS011;14556;52.222;4.510;2022-10-16T08:51:04;5.03;;;1.33;;
27013;SDS011;14556;52.222;4.510;2022-10-16T08:53:40;3.33;;;1.10;;
27013;SDS011;14556;52.222;4.510;2022-10-16T08:56:11;7.40;;;2.10;;
27013;SDS011;14556;52.222;4.510;2022-10-16T08:58:37;5.53;;;1.60;;
27013;SDS011;14556;52.222;4.510;2022-10-16T09:01:04;7.33;;;1.60;;
27013;SDS011;14556;52.222;4.510;2022-10-16T09:03:58;3.87;;;1.10;;
27013;SDS011;14556;52.222;4.510;2022-10-16T09:09:26;7.40;;;1.67;;
27013;SDS011;14556;52.222;4.510;2022-10-16T09:12:28;4.90;;;1.30;;
27013;SDS011;14556;52.222;4.510;2022-10-16T09:20:44;7.30;;;1.47;;
27013;SDS011;14556;52.222;4.510;2022-10-16T09:23:36;5.30;;;1.50;;
27013;SDS011;14556;52.222;4.510;2022-10-16T09:26:03;8.83;;;1.40;;
27013;SDS011;14556;52.222;4.510;2022-10-16T09:28:31;10.83;;;1.60;;
27013;SDS011;14556;52.222;4.510;2022-10-16T09:30:58;6.93;;;1.60;;
27013;SDS011;14556;52.222;4.510;2022-10-16T09:33:25;9.20;;;2.33;;
27013;SDS011;14556;52.222;4.510;2022-10-16T09:35:56;4.60;;;1.53;;
27013;SDS011;14556;52.222;4.510;2022-10-16T09:40:54;5.00;;;1.20;;
27013;SDS011;14556;52.222;4.510;2022-10-16T09:43:35;6.77;;;1.50;;
27013;SDS011;14556;52.222;4.510;2022-10-16T09:46:26;8.67;;;2.10;;
27013;SDS011;14556;52.222;4.510;2022-10-16T09:48:54;11.93;;;1.70;;
27013;SDS011;14556;52.222;4.510;2022-10-16T09:51:25;8.80;;;1.93;;
27013;SDS011;14556;52.222;4.510;2022-10-16T09:56:37;7.33;;;1.40;;
27013;SDS011;14556;52.222;4.510;2022-10-16T09:59:11;9.43;;;1.53;;
27013;SDS011;14556;52.222;4.510;2022-10-16T10:01:40;11.13;;;1.80;;
27013;SDS011;14556;52.222;4.510;2022-10-16T10:04:10;7.20;;;1.23;;
27013;SDS011;14556;52.222;4.510;2022-10-16T10:06:40;7.33;;;1.50;;
27013;SDS011;14556;52.222;4.510;2022-10-16T10:09:30;9.70;;;1.67;;
27013;SDS011;14556;52.222;4.510;2022-10-16T10:12:02;10.07;;;2.43;;
27013;SDS011;14556;52.222;4.510;2022-10-16T10:19:42;12.83;;;2.03;;
27013;SDS011;14556;52.222;4.510;2022-10-16T10:22:55;8.60;;;1.10;;
27013;SDS011;14556;52.222;4.510;2022-10-16T10:39:27;6.80;;;1.20;;
27013;SDS011;14556;52.222;4.510;2022-10-16T10:42:36;10.73;;;1.67;;
27013;SDS011;14556;52.222;4.510;2022-10-16T10:45:41;10.93;;;1.37;;
27013;SDS011;14556;52.222;4.510;2022-10-16T10:50:45;10.27;;;1.17;;
27013;SDS011;14556;52.222;4.510;2022-10-16T11:04:34;6.20;;;1.53;;
27013;SDS011;14556;52.222;4.510;2022-10-16T11:07:20;5.53;;;1.20;;
27013;SDS011;14556;52.222;4.510;2022-10-16T11:09:53;7.97;;;0.93;;
27013;SDS011;14556;52.222;4.510;2022-10-16T11:17:41;6.67;;;1.20;;
27013;SDS011;14556;52.222;4.510;2022-10-16T11:20:18;5.03;;;1.13;;
27013;SDS011;14556;52.222;4.510;2022-10-16T11:25:31;5.80;;;1.30;;
27013;SDS011;14556;52.222;4.510;2022-10-16T11:28:03;5.90;;;1.20;;
27013;SDS011;14556;52.222;4.510;2022-10-16T11:31:10;13.73;;;1.87;;
27013;SDS011;14556;52.222;4.510;2022-10-16T11:33:52;4.73;;;1.20;;
27013;SDS011;14556;52.222;4.510;2022-10-16T11:36:57;6.00;;;1.40;;
27013;SDS011;14556;52.222;4.510;2022-10-16T11:39:30;6.20;;;1.10;;
27013;SDS011;14556;52.222;4.510;2022-10-16T11:42:02;8.50;;;1.53;;
27013;SDS011;14556;52.222;4.510;2022-10-16T11:44:36;5.20;;;1.13;;
27013;SDS011;14556;52.222;4.510;2022-10-16T11:53:13;6.97;;;1.50;;
27013;SDS011;14556;52.222;4.510;2022-10-16T11:55:47;7.93;;;1.07;;
27013;SDS011;14556;52.222;4.510;2022-10-16T12:04:14;11.67;;;1.50;;
27013;SDS011;14556;52.222;4.510;2022-10-16T12:06:48;5.27;;;1.00;;
27013;SDS011;14556;52.222;4.510;2022-10-16T12:09:30;9.03;;;1.50;;
27013;SDS011;14556;52.222;4.510;2022-10-16T12:11:59;6.53;;;1.80;;
27013;SDS011;14556;52.222;4.510;2022-10-16T12:16:56;5.60;;;1.00;;
27013;SDS011;14556;52.222;4.510;2022-10-16T12:19:28;3.97;;;1.20;;
27013;SDS011;14556;52.222;4.510;2022-10-16T12:21:57;7.27;;;1.63;;
27013;SDS011;14556;52.222;4.510;2022-10-16T12:24:33;9.87;;;1.27;;
27013;SDS011;14556;52.222;4.510;2022-10-16T12:27:04;5.60;;;1.10;;
27013;SDS011;14556;52.222;4.510;2022-10-16T12:29:40;2.33;;;0.90;;
27013;SDS011;14556;52.222;4.510;2022-10-16T12:32:28;4.53;;;1.23;;
27013;SDS011;14556;52.222;4.510;2022-10-16T12:35:22;5.87;;;1.00;;
27013;SDS011;14556;52.222;4.510;2022-10-16T12:37:51;6.30;;;0.97;;
27013;SDS011;14556;52.222;4.510;2022-10-16T12:40:31;3.17;;;0.97;;
27013;SDS011;14556;52.222;4.510;2022-10-16T12:43:10;8.47;;;1.23;;
27013;SDS011;14556;52.222;4.510;2022-10-16T12:45:38;3.20;;;0.90;;
27013;SDS011;14556;52.222;4.510;2022-10-16T12:48:18;4.63;;;0.93;;
27013;SDS011;14556;52.222;4.510;2022-10-16T12:50:54;7.60;;;1.57;;
27013;SDS011;14556;52.222;4.510;2022-10-16T12:53:21;8.00;;;1.10;;
27013;SDS011;14556;52.222;4.510;2022-10-16T13:04:10;5.20;;;1.10;;
27013;SDS011;14556;52.222;4.510;2022-10-16T13:09:44;4.83;;;0.70;;
27013;SDS011;14556;52.222;4.510;2022-10-16T13:17:57;5.93;;;0.90;;
27013;SDS011;14556;52.222;4.510;2022-10-16T13:23:16;10.90;;;1.27;;
27013;SDS011;14556;52.222;4.510;2022-10-16T13:28:39;3.57;;;0.80;;
27013;SDS011;14556;52.222;4.510;2022-10-16T13:31:09;9.00;;;1.40;;
27013;SDS011;14556;52.222;4.510;2022-10-16T13:33:41;4.30;;;1.07;;
27013;SDS011;14556;52.222;4.510;2022-10-16T13:36:18;7.20;;;1.10;;
27013;SDS011;14556;52.222;4.510;2022-10-16T13:38:47;5.57;;;0.77;;
27013;SDS011;14556;52.222;4.510;2022-10-16T13:41:17;5.90;;;1.60;;
27013;SDS011;14556;52.222;4.510;2022-10-16T13:43:50;4.43;;;1.23;;
27013;SDS011;14556;52.222;4.510;2022-10-16T13:46:21;8.07;;;2.03;;
27013;SDS011;14556;52.222;4.510;2022-10-16T13:51:24;7.33;;;0.90;;
27013;SDS011;14556;52.222;4.510;2022-10-16T13:53:51;7.60;;;1.53;;
27013;SDS011;14556;52.222;4.510;2022-10-16T13:56:19;7.17;;;0.83;;
27013;SDS011;14556;52.222;4.510;2022-10-16T13:58:57;3.83;;;1.43;;
27013;SDS011;14556;52.222;4.510;2022-10-16T14:01:31;6.40;;;1.00;;
27013;SDS011;14556;52.222;4.510;2022-10-16T14:04:02;4.43;;;1.13;;
27013;SDS011;14556;52.222;4.510;2022-10-16T14:06:34;5.73;;;1.00;;
27013;SDS011;14556;52.222;4.510;2022-10-16T14:09:11;3.53;;;0.80;;
27013;SDS011;14556;52.222;4.510;2022-10-16T14:11:48;3.33;;;0.93;;
27013;SDS011;14556;52.222;4.510;2022-10-16T14:14:18;6.77;;;1.13;;
27013;SDS011;14556;52.222;4.510;2022-10-16T14:16:45;4.10;;;1.00;;
27013;SDS011;14556;52.222;4.510;2022-10-16T14:19:14;3.93;;;0.90;;
27013;SDS011;14556;52.222;4.510;2022-10-16T14:21:46;7.57;;;1.00;;
27013;SDS011;14556;52.222;4.510;2022-10-16T14:24:13;6.60;;;1.50;;
27013;SDS011;14556;52.222;4.510;2022-10-16T14:26:47;7.67;;;1.17;;
27013;SDS011;14556;52.222;4.510;2022-10-16T14:29:19;7.87;;;1.53;;
27013;SDS011;14556;52.222;4.510;2022-10-16T14:34:24;7.50;;;1.07;;
27013;SDS011;14556;52.222;4.510;2022-10-16T14:36:50;8.93;;;1.60;;
27013;SDS011;14556;52.222;4.510;2022-10-16T14:39:17;6.43;;;1.20;;
27013;SDS011;14556;52.222;4.510;2022-10-16T14:41:49;9.07;;;1.60;;
27013;SDS011;14556;52.222;4.510;2022-10-16T14:44:17;2.30;;;0.93;;
27013;SDS011;14556;52.222;4.510;2022-10-16T14:46:45;4.77;;;1.20;;
27013;SDS011;14556;52.222;4.510;2022-10-16T14:51:38;6.83;;;1.67;;
27013;SDS011;14556;52.222;4.510;2022-10-16T14:54:08;5.93;;;1.30;;
27013;SDS011;14556;52.222;4.510;2022-10-16T14:56:42;7.03;;;1.70;;
27013;SDS011;14556;52.222;4.510;2022-10-16T14:59:14;5.03;;;1.33;;
27013;SDS011;14556;52.222;4.510;2022-10-16T15:01:44;5.23;;;1.40;;
27013;SDS011;14556;52.222;4.510;2022-10-16T15:04:11;6.20;;;1.43;;
27013;SDS011;14556;52.222;4.510;2022-10-16T15:06:39;7.73;;;2.00;;
27013;SDS011;14556;52.222;4.510;2022-10-16T15:09:05;7.63;;;1.50;;
27013;SDS011;14556;52.222;4.510;2022-10-16T15:11:31;5.53;;;1.30;;
27013;SDS011;14556;52.222;4.510;2022-10-16T15:13:58;5.47;;;1.53;;
27013;SDS011;14556;52.222;4.510;2022-10-16T15:16:25;5.30;;;1.30;;
27013;SDS011;14556;52.222;4.510;2022-10-16T15:18:51;6.70;;;2.00;;
27013;SDS011;14556;52.222;4.510;2022-10-16T15:21:30;9.00;;;1.20;;
27013;SDS011;14556;52.222;4.510;2022-10-16T15:23:57;6.93;;;1.33;;
27013;SDS011;14556;52.222;4.510;2022-10-16T15:26:25;8.93;;;1.53;;
27013;SDS011;14556;52.222;4.510;2022-10-16T15:28:53;8.80;;;1.60;;
27013;SDS011;14556;52.222;4.510;2022-10-16T15:31:20;4.97;;;1.30;;
27013;SDS011;14556;52.222;4.510;2022-10-16T15:33:52;6.67;;;1.30;;
27013;SDS011;14556;52.222;4.510;2022-10-16T15:36:28;6.87;;;1.50;;
27013;SDS011;14556;52.222;4.510;2022-10-16T15:38:56;8.20;;;1.60;;
27013;SDS011;14556;52.222;4.510;2022-10-16T15:41:23;6.03;;;1.47;;
27013;SDS011;14556;52.222;4.510;2022-10-16T15:43:49;6.33;;;1.77;;
27013;SDS011;14556;52.222;4.510;2022-10-16T15:46:20;5.30;;;1.63;;
27013;SDS011;14556;52.222;4.510;2022-10-16T15:48:48;7.23;;;1.63;;
27013;SDS011;14556;52.222;4.510;2022-10-16T15:51:16;5.57;;;1.70;;
27013;SDS011;14556;52.222;4.510;2022-10-16T15:53:44;10.50;;;2.03;;
27013;SDS011;14556;52.222;4.510;2022-10-16T15:56:12;5.87;;;1.67;;
27013;SDS011;14556;52.222;4.510;2022-10-16T15:58:40;9.47;;;2.27;;
27013;SDS011;14556;52.222;4.510;2022-10-16T16:01:06;8.93;;;1.97;;
27013;SDS011;14556;52.222;4.510;2022-10-16T16:03:35;7.87;;;1.80;;
27013;SDS011;14556;52.222;4.510;2022-10-16T16:06:03;7.30;;;1.53;;
27013;SDS011;14556;52.222;4.510;2022-10-16T16:08:34;7.03;;;1.73;;
27013;SDS011;14556;52.222;4.510;2022-10-16T16:11:02;7.17;;;1.60;;
27013;SDS011;14556;52.222;4.510;2022-10-16T16:13:29;6.50;;;2.07;;
27013;SDS011;14556;52.222;4.510;2022-10-16T16:15:56;7.97;;;1.60;;
27013;SDS011;14556;52.222;4.510;2022-10-16T16:18:22;8.43;;;1.57;;
27013;SDS011;14556;52.222;4.510;2022-10-16T16:20:50;12.97;;;2.00;;
27013;SDS011;14556;52.222;4.510;2022-10-16T16:23:19;8.23;;;1.80;;
27013;SDS011;14556;52.222;4.510;2022-10-16T16:26:01;9.70;;;1.90;;
27013;SDS011;14556;52.222;4.510;2022-10-16T16:28:40;7.57;;;2.07;;
27013;SDS011;14556;52.222;4.510;2022-10-16T16:31:08;10.33;;;1.80;;
27013;SDS011;14556;52.222;4.510;2022-10-16T16:33:35;11.03;;;2.13;;
27013;SDS011;14556;52.222;4.510;2022-10-16T16:36:03;8.70;;;2.30;;
27013;SDS011;14556;52.222;4.510;2022-10-16T16:38:38;12.57;;;2.77;;
27013;SDS011;14556;52.222;4.510;2022-10-16T16:41:14;13.97;;;2.60;;
27013;SDS011;14556;52.222;4.510;2022-10-16T16:43:43;11.23;;;2.77;;
27013;SDS011;14556;52.222;4.510;2022-10-16T16:46:10;9.77;;;2.30;;
27013;SDS011;14556;52.222;4.510;2022-10-16T16:48:37;8.53;;;2.50;;
27013;SDS011;14556;52.222;4.510;2022-10-16T16:51:04;10.60;;;2.43;;
27013;SDS011;14556;52.222;4.510;2022-10-16T16:53:42;8.73;;;2.07;;
27013;SDS011;14556;52.222;4.510;2022-10-16T16:56:10;8.43;;;2.13;;
27013;SDS011;14556;52.222;4.510;2022-10-16T16:58:37;8.17;;;1.77;;
27013;SDS011;14556;52.222;4.510;2022-10-16T17:01:03;7.07;;;2.30;;
27013;SDS011;14556;52.222;4.510;2022-10-16T17:03:47;9.67;;;1.97;;
27013;SDS011;14556;52.222;4.510;2022-10-16T17:06:16;8.70;;;2.20;;
27013;SDS011;14556;52.222;4.510;2022-10-16T17:08:46;15.03;;;2.37;;
27013;SDS011;14556;52.222;4.510;2022-10-16T17:11:15;13.27;;;2.63;;